Time;durP1;ratioP1;P1;durP2;ratioP2;P2;SDS_P1;SDS_P2;PMS_P1;PMS_P2;Temp;Humidity;BMP_temperature;BMP_pressure;BME280_temperature;BME280_humidity;BME280_pressure;Samples;Min_cycle;Max_cycle;Signal;HPM_P1;HPM_P2
2023/02/01 00:00:19;;;;;;;9.63;5.93;;;6.50;99.90;;;;;;5078866;28;20201;-63
2023/02/01 00:02:45;;;;;;;8.30;5.90;;;6.50;99.90;;;;;;5050906;28;20233;-62
2023/02/01 00:05:10;;;;;;;6.87;6.03;;;6.50;99.90;;;;;;5076879;28;20201;-63
2023/02/01 00:07:37;;;;;;;11.40;6.90;;;6.60;99.90;;;;;;5078861;28;20190;-63
2023/02/01 00:10:04;;;;;;;12.50;7.20;;;6.60;99.90;;;;;;5073706;28;20186;-63
2023/02/01 00:12:30;;;;;;;10.80;7.20;;;6.50;99.90;;;;;;5077335;28;20437;-63
2023/02/01 00:14:56;;;;;;;7.87;6.07;;;6.60;99.90;;;;;;5075377;28;20448;-63
2023/02/01 00:17:22;;;;;;;11.00;6.70;;;6.70;99.90;;;;;;5071452;28;20444;-63
2023/02/01 00:19:47;;;;;;;10.20;7.30;;;6.60;99.90;;;;;;5074854;28;20676;-63
2023/02/01 00:22:13;;;;;;;8.77;6.10;;;6.60;99.90;;;;;;5076972;28;20191;-63
2023/02/01 00:24:38;;;;;;;8.00;6.30;;;6.60;99.90;;;;;;5076513;28;20308;-63
2023/02/01 00:27:04;;;;;;;8.40;5.93;;;6.60;99.90;;;;;;5059651;28;20315;-63
2023/02/01 00:29:29;;;;;;;8.27;6.60;;;6.60;99.90;;;;;;5078516;28;20791;-63
2023/02/01 00:31:55;;;;;;;8.47;6.10;;;6.70;99.90;;;;;;5076837;28;20660;-63
2023/02/01 00:34:20;;;;;;;12.73;6.73;;;6.70;99.90;;;;;;5060335;28;20183;-63
2023/02/01 00:36:46;;;;;;;10.40;5.40;;;6.70;99.90;;;;;;5074393;28;20267;-63
2023/02/01 00:39:12;;;;;;;6.87;5.33;;;6.70;99.90;;;;;;5053253;28;20259;-63
2023/02/01 00:41:38;;;;;;;10.47;5.33;;;6.70;99.90;;;;;;5077159;28;20517;-63
2023/02/01 00:44:04;;;;;;;6.37;4.80;;;6.70;99.90;;;;;;5073579;28;20838;-63
2023/02/01 00:46:30;;;;;;;7.13;4.90;;;6.80;99.90;;;;;;5077887;28;20521;-63
2023/02/01 00:48:56;;;;;;;8.07;5.50;;;6.80;99.90;;;;;;5074538;28;20652;-63
2023/02/01 00:51:24;;;;;;;7.33;5.50;;;6.70;99.90;;;;;;5075214;28;20461;-63
2023/02/01 00:53:50;;;;;;;7.40;5.10;;;6.70;99.90;;;;;;5075005;28;20197;-63
2023/02/01 00:56:16;;;;;;;6.33;5.03;;;6.60;99.90;;;;;;5057941;28;20825;-63
2023/02/01 00:58:42;;;;;;;7.30;4.90;;;6.60;99.90;;;;;;5075963;28;20651;-63
2023/02/01 01:01:17;;;;;;;6.20;4.60;;;6.60;99.90;;;;;;5055722;28;20446;-63
2023/02/01 01:03:58;;;;;;;7.30;5.57;;;6.50;99.90;;;;;;5073049;28;20484;-63
2023/02/01 01:06:27;;;;;;;7.30;4.93;;;6.50;99.90;;;;;;5074246;28;20510;-63
2023/02/01 01:08:55;;;;;;;9.70;5.50;;;6.50;99.90;;;;;;5070983;28;20457;-63
2023/02/01 01:11:23;;;;;;;8.13;5.00;;;6.50;99.90;;;;;;5071371;28;20444;-63
2023/02/01 01:13:50;;;;;;;8.40;4.80;;;6.50;99.90;;;;;;5071223;28;20433;-63
2023/02/01 01:16:17;;;;;;;7.70;5.00;;;6.50;99.90;;;;;;5057142;28;20460;-63
2023/02/01 01:18:43;;;;;;;9.43;5.07;;;6.50;99.90;;;;;;5074530;28;20477;-63
2023/02/01 01:21:11;;;;;;;7.60;4.87;;;6.60;99.90;;;;;;5071975;28;20525;-63
2023/02/01 01:23:36;;;;;;;6.60;4.73;;;6.60;99.90;;;;;;5078848;28;20468;-63
2023/02/01 01:26:08;;;;;;;7.00;4.70;;;6.50;99.90;;;;;;5075150;28;20481;-63
2023/02/01 01:28:34;;;;;;;6.93;4.57;;;6.60;99.90;;;;;;5072657;28;20183;-63
2023/02/01 01:31:00;;;;;;;7.07;4.80;;;6.60;99.90;;;;;;5068624;28;20444;-63
2023/02/01 01:33:26;;;;;;;5.23;4.00;;;6.50;99.90;;;;;;5075697;28;20449;-63
2023/02/01 01:35:51;;;;;;;6.20;4.53;;;6.50;99.90;;;;;;5074800;28;20759;-63
2023/02/01 01:38:17;;;;;;;5.70;4.20;;;6.50;99.90;;;;;;5073954;28;20186;-63
2023/02/01 01:40:47;;;;;;;6.90;4.40;;;6.40;99.90;;;;;;5074442;28;20276;-63
2023/02/01 01:43:14;;;;;;;6.90;4.80;;;6.50;99.90;;;;;;5073084;28;20827;-63
2023/02/01 01:45:40;;;;;;;6.33;4.13;;;6.40;99.90;;;;;;5077535;28;20497;-63
2023/02/01 01:48:07;;;;;;;8.07;4.83;;;6.40;99.90;;;;;;5071515;28;20441;-63
2023/02/01 01:50:50;;;;;;;5.20;4.20;;;6.40;99.90;;;;;;5058279;28;20265;-63
2023/02/01 01:53:27;;;;;;;6.07;4.53;;;6.50;99.90;;;;;;5053127;28;20519;-63
2023/02/01 01:55:55;;;;;;;9.07;4.77;;;6.40;99.90;;;;;;5071020;28;20456;-63
2023/02/01 01:58:25;;;;;;;5.50;4.00;;;6.50;99.90;;;;;;5070545;28;20964;-63
2023/02/01 02:00:52;;;;;;;6.73;4.33;;;6.50;99.90;;;;;;5055282;28;20743;-63
2023/02/01 02:03:22;;;;;;;6.83;4.53;;;6.40;99.90;;;;;;5071203;28;20475;-63
2023/02/01 02:05:49;;;;;;;6.80;4.93;;;6.50;99.90;;;;;;5072186;28;20483;-63
2023/02/01 02:08:16;;;;;;;8.13;4.87;;;6.50;99.90;;;;;;5051104;28;20452;-63
2023/02/01 02:11:01;;;;;;;6.47;5.00;;;6.50;99.90;;;;;;5072436;28;20449;-63
2023/02/01 02:13:31;;;;;;;5.60;4.30;;;6.50;99.90;;;;;;5076610;28;20472;-63
2023/02/01 02:16:14;;;;;;;8.83;5.03;;;6.50;99.90;;;;;;5070371;28;20457;-63
2023/02/01 02:18:58;;;;;;;6.33;4.40;;;6.50;99.90;;;;;;5075876;28;20480;-63
2023/02/01 02:22:09;;;;;;;4.80;4.00;;;6.50;99.90;;;;;;5074032;28;20444;-63
2023/02/01 02:24:41;;;;;;;5.60;4.00;;;6.50;99.90;;;;;;5052467;28;20531;-63
2023/02/01 02:27:23;;;;;;;5.17;4.63;;;6.40;99.90;;;;;;5073452;28;20488;-63
2023/02/01 02:30:01;;;;;;;4.70;4.10;;;6.30;99.90;;;;;;5074681;28;20433;-63
2023/02/01 02:33:19;;;;;;;7.33;5.17;;;6.30;99.90;;;;;;5068096;28;20816;-63
2023/02/01 02:36:05;;;;;;;6.27;4.70;;;6.40;99.90;;;;;;5056526;28;20547;-62
2023/02/01 02:38:41;;;;;;;6.77;4.50;;;6.40;99.90;;;;;;5076029;28;20458;-63
2023/02/01 02:47:25;;;;;;;5.23;4.70;;;6.40;99.90;;;;;;5070772;28;20604;-63
2023/02/01 02:55:33;;;;;;;6.00;4.53;;;6.60;99.90;;;;;;5071474;28;20667;-63
2023/02/01 03:06:18;;;;;;;5.80;4.63;;;6.60;99.90;;;;;;5070568;28;20471;-63
2023/02/01 03:08:45;;;;;;;5.17;4.07;;;6.60;99.90;;;;;;5075864;28;20443;-62
2023/02/01 03:11:13;;;;;;;4.20;3.70;;;6.50;99.90;;;;;;5072164;28;20440;-63
2023/02/01 03:13:52;;;;;;;5.77;4.40;;;6.50;99.90;;;;;;5074242;28;20820;-63
2023/02/01 03:16:26;;;;;;;5.63;4.80;;;6.50;99.90;;;;;;5068038;28;20931;-63
2023/02/01 03:19:00;;;;;;;6.50;4.63;;;6.40;99.90;;;;;;5072433;28;20435;-63
2023/02/01 03:21:33;;;;;;;8.00;4.37;;;6.40;99.90;;;;;;5079179;28;20432;-63
2023/02/01 03:24:04;;;;;;;6.10;4.50;;;6.40;99.90;;;;;;5073684;28;20891;-63
2023/02/01 03:26:33;;;;;;;4.57;3.93;;;6.30;99.90;;;;;;5073695;28;20505;-63
2023/02/01 03:29:07;;;;;;;5.87;4.67;;;6.40;99.90;;;;;;5071969;28;20751;-63
2023/02/01 03:31:33;;;;;;;7.40;4.50;;;6.50;99.90;;;;;;5070190;28;20435;-63
2023/02/01 03:33:59;;;;;;;5.77;4.30;;;6.40;99.90;;;;;;5076631;28;20448;-62
2023/02/01 03:36:42;;;;;;;6.63;4.90;;;6.40;99.90;;;;;;5077540;28;20198;-63
2023/02/01 03:39:24;;;;;;;5.90;5.00;;;6.50;99.90;;;;;;5074855;28;20239;-63
2023/02/01 03:41:53;;;;;;;7.30;4.60;;;6.50;99.90;;;;;;5076263;28;20439;-62
2023/02/01 03:44:26;;;;;;;6.60;4.80;;;6.50;99.90;;;;;;5076276;28;20467;-62
2023/02/01 03:46:59;;;;;;;6.60;4.10;;;6.50;99.90;;;;;;5077634;28;20453;-62
2023/02/01 03:49:29;;;;;;;5.83;4.50;;;6.50;99.90;;;;;;5078017;28;20443;-63
2023/02/01 03:51:58;;;;;;;6.20;4.57;;;6.40;99.90;;;;;;5075395;28;20436;-63
2023/02/01 03:54:27;;;;;;;5.60;4.40;;;6.50;99.90;;;;;;5074754;28;20563;-63
2023/02/01 03:56:55;;;;;;;8.43;5.17;;;6.60;99.90;;;;;;5073339;28;20490;-63
2023/02/01 03:59:20;;;;;;;5.90;4.60;;;6.70;99.90;;;;;;5074053;28;20536;-63
2023/02/01 04:01:46;;;;;;;5.67;4.33;;;6.60;99.90;;;;;;5075761;28;20532;-63
2023/02/01 04:04:19;;;;;;;5.60;4.43;;;6.70;99.90;;;;;;5076706;28;20214;-63
2023/02/01 04:06:54;;;;;;;7.90;4.63;;;6.60;99.90;;;;;;5074602;28;20236;-63
2023/02/01 04:09:19;;;;;;;6.20;3.93;;;6.60;99.90;;;;;;5074825;28;20467;-63
2023/02/01 04:11:45;;;;;;;4.43;3.63;;;6.70;99.90;;;;;;5076228;28;20436;-63
2023/02/01 04:14:10;;;;;;;5.50;4.20;;;6.70;99.90;;;;;;5068486;28;20707;-63
2023/02/01 04:16:36;;;;;;;5.43;4.60;;;6.70;99.90;;;;;;5073926;28;20251;-63
2023/02/01 04:19:01;;;;;;;7.30;4.80;;;6.70;99.90;;;;;;5073263;28;20183;-63
2023/02/01 04:21:28;;;;;;;6.63;4.57;;;6.70;99.90;;;;;;5077916;28;20182;-62
2023/02/01 04:23:53;;;;;;;6.47;5.23;;;6.70;99.90;;;;;;5076902;28;20289;-63
2023/02/01 04:26:19;;;;;;;10.80;4.37;;;6.70;99.90;;;;;;5060270;28;20597;-63
2023/02/01 04:28:48;;;;;;;6.30;4.67;;;6.70;99.90;;;;;;5074482;28;20179;-63
2023/02/01 04:31:17;;;;;;;5.43;4.70;;;6.80;99.90;;;;;;5073132;28;20444;-63
2023/02/01 04:33:43;;;;;;;6.07;4.43;;;6.80;99.90;;;;;;5076750;28;20441;-63
2023/02/01 04:36:09;;;;;;;8.50;4.80;;;6.80;99.90;;;;;;5072476;28;20455;-62
2023/02/01 04:38:35;;;;;;;5.87;4.10;;;6.80;99.90;;;;;;5059790;28;21107;-63
2023/02/01 04:41:01;;;;;;;6.83;4.20;;;6.80;99.90;;;;;;5076927;28;20515;-63
2023/02/01 04:43:26;;;;;;;7.13;5.03;;;6.70;99.90;;;;;;5075527;28;20289;-63
2023/02/01 04:45:53;;;;;;;5.70;4.53;;;6.70;99.90;;;;;;5073618;28;20285;-63
2023/02/01 04:48:20;;;;;;;5.90;4.20;;;6.60;99.90;;;;;;5075887;28;20249;-63
2023/02/01 04:50:47;;;;;;;6.63;5.00;;;6.60;99.90;;;;;;5073022;28;20433;-63
2023/02/01 04:53:14;;;;;;;6.17;4.70;;;6.60;99.90;;;;;;5079491;28;20428;-62
2023/02/01 04:55:40;;;;;;;6.63;4.60;;;6.60;99.90;;;;;;5060246;28;21158;-62
2023/02/01 04:58:05;;;;;;;6.83;3.70;;;6.60;99.90;;;;;;5074678;28;20428;-62
2023/02/01 05:00:31;;;;;;;5.93;4.03;;;6.60;99.90;;;;;;5074836;28;20723;-62
2023/02/01 05:02:57;;;;;;;9.37;4.30;;;6.60;99.90;;;;;;5074497;28;20714;-62
2023/02/01 05:05:22;;;;;;;5.20;4.23;;;6.60;99.90;;;;;;5075694;28;21452;-62
2023/02/01 05:07:48;;;;;;;5.87;4.63;;;6.70;99.90;;;;;;5075046;28;20902;-62
2023/02/01 05:10:13;;;;;;;4.20;3.80;;;6.60;99.90;;;;;;5055822;28;20175;-62
2023/02/01 05:15:23;;;;;;;8.10;4.43;;;6.40;99.90;;;;;;5072335;28;20200;-62
2023/02/01 05:17:48;;;;;;;5.50;4.33;;;6.40;99.90;;;;;;5074247;28;20460;-62
2023/02/01 05:20:14;;;;;;;6.40;4.57;;;6.30;99.90;;;;;;5074967;28;20194;-62
2023/02/01 05:22:41;;;;;;;6.07;4.63;;;6.40;99.90;;;;;;5074982;28;20194;-62
2023/02/01 05:25:07;;;;;;;6.57;4.77;;;6.40;99.90;;;;;;5069657;28;20242;-62
2023/02/01 05:27:32;;;;;;;5.80;4.40;;;6.40;99.90;;;;;;5057976;28;20539;-62
2023/02/01 05:29:58;;;;;;;7.07;4.80;;;6.40;99.90;;;;;;5076833;28;20896;-62
2023/02/01 05:32:23;;;;;;;6.93;5.17;;;6.50;99.90;;;;;;5075428;28;20178;-63
2023/02/01 05:34:49;;;;;;;7.27;4.80;;;6.40;99.90;;;;;;5072677;28;20191;-64
2023/02/01 05:37:15;;;;;;;6.90;4.70;;;6.30;99.90;;;;;;5075995;28;20249;-63
2023/02/01 05:39:40;;;;;;;6.87;4.07;;;6.20;99.90;;;;;;5077754;28;20191;-63
2023/02/01 05:42:06;;;;;;;7.37;4.87;;;6.20;99.90;;;;;;5059002;28;20170;-63
2023/02/01 05:44:31;;;;;;;6.93;4.33;;;6.30;99.90;;;;;;5074199;28;20212;-63
2023/02/01 05:46:57;;;;;;;5.47;4.10;;;6.30;99.90;;;;;;5058698;28;20213;-64
2023/02/01 05:49:22;;;;;;;5.30;4.50;;;6.40;99.90;;;;;;5058720;28;20178;-63
2023/02/01 05:51:48;;;;;;;6.43;4.23;;;6.30;99.90;;;;;;5075423;28;20192;-63
2023/02/01 05:54:13;;;;;;;5.07;3.90;;;6.40;99.90;;;;;;5076604;28;20182;-63
2023/02/01 05:56:40;;;;;;;6.20;4.20;;;6.50;99.90;;;;;;5074167;28;20209;-63
2023/02/01 05:59:06;;;;;;;6.23;4.00;;;6.40;99.90;;;;;;5074146;28;20703;-64
2023/02/01 06:01:31;;;;;;;7.47;4.70;;;6.50;99.90;;;;;;5076922;28;20436;-64
2023/02/01 06:03:57;;;;;;;6.37;4.40;;;6.50;99.90;;;;;;5072257;28;20203;-63
2023/02/01 06:06:22;;;;;;;9.13;4.30;;;6.50;99.90;;;;;;5075088;28;20230;-63
2023/02/01 06:08:48;;;;;;;6.50;4.43;;;6.50;99.90;;;;;;5075974;28;20177;-63
2023/02/01 06:11:13;;;;;;;7.87;4.83;;;6.40;99.90;;;;;;5055298;28;20189;-63
2023/02/01 06:13:39;;;;;;;6.60;4.07;;;6.40;99.90;;;;;;5080468;28;20178;-63
2023/02/01 06:16:07;;;;;;;6.00;4.67;;;6.40;99.90;;;;;;5074128;28;20591;-64
2023/02/01 06:18:33;;;;;;;4.67;3.87;;;6.40;99.90;;;;;;5074117;28;20332;-63
2023/02/01 06:21:00;;;;;;;6.63;4.53;;;6.40;99.90;;;;;;5067215;28;20534;-63
2023/02/01 06:23:26;;;;;;;4.93;4.40;;;6.50;99.90;;;;;;5073324;28;20456;-64
2023/02/01 06:25:59;;;;;;;4.60;3.93;;;6.50;99.90;;;;;;5072435;28;20528;-63
2023/02/01 06:28:25;;;;;;;7.27;4.70;;;6.50;99.90;;;;;;5073122;28;20433;-63
2023/02/01 06:30:50;;;;;;;5.83;4.63;;;6.50;99.90;;;;;;5072516;28;20514;-63
2023/02/01 06:33:16;;;;;;;5.77;4.23;;;6.50;99.90;;;;;;5073698;28;20218;-63
2023/02/01 06:35:44;;;;;;;5.67;3.87;;;6.40;99.90;;;;;;5075020;28;20711;-64
2023/02/01 06:38:11;;;;;;;7.67;4.10;;;6.50;99.90;;;;;;5070986;28;20186;-63
2023/02/01 06:40:37;;;;;;;7.13;3.93;;;6.60;99.90;;;;;;5075645;28;20900;-63
2023/02/01 06:43:02;;;;;;;6.80;4.53;;;6.60;99.90;;;;;;5072713;28;20437;-63
2023/02/01 06:45:28;;;;;;;5.73;4.70;;;6.60;99.90;;;;;;5072813;28;22609;-63
2023/02/01 06:47:53;;;;;;;10.03;5.27;;;6.60;99.90;;;;;;5071407;28;20608;-63
2023/02/01 06:50:20;;;;;;;6.47;4.40;;;6.70;99.90;;;;;;5072942;28;20178;-64
2023/02/01 06:52:45;;;;;;;6.50;4.17;;;6.60;99.90;;;;;;5053891;28;20559;-64
2023/02/01 06:55:11;;;;;;;7.33;4.20;;;6.60;99.90;;;;;;5068127;28;20428;-63
2023/02/01 06:57:37;;;;;;;7.13;4.60;;;6.60;99.90;;;;;;5073693;28;20951;-63
2023/02/01 07:00:04;;;;;;;4.93;3.60;;;6.60;99.90;;;;;;5072497;28;20440;-63
2023/02/01 07:02:30;;;;;;;5.00;3.70;;;6.70;99.90;;;;;;5071591;28;20191;-64
2023/02/01 07:04:56;;;;;;;8.10;4.40;;;6.70;99.90;;;;;;5067144;28;20997;-64
2023/02/01 07:07:22;;;;;;;5.53;3.20;;;6.70;99.90;;;;;;5075140;28;20285;-64
2023/02/01 07:09:49;;;;;;;6.03;4.80;;;6.60;99.90;;;;;;5080549;28;20183;-64
2023/02/01 07:12:14;;;;;;;6.33;4.23;;;6.50;99.90;;;;;;5076730;28;22049;-64
2023/02/01 07:14:40;;;;;;;8.30;5.40;;;6.50;99.90;;;;;;5077825;28;20463;-65
2023/02/01 07:17:06;;;;;;;8.13;4.77;;;6.40;99.90;;;;;;5074179;28;20448;-64
2023/02/01 07:19:31;;;;;;;8.93;5.23;;;6.40;99.90;;;;;;5077041;28;20193;-64
2023/02/01 07:21:57;;;;;;;10.13;5.10;;;6.40;99.90;;;;;;5080234;28;20616;-63
2023/02/01 07:24:22;;;;;;;6.03;5.10;;;6.40;99.90;;;;;;5080739;28;20213;-63
2023/02/01 07:26:48;;;;;;;6.77;4.60;;;6.40;99.90;;;;;;5077251;28;20213;-64
2023/02/01 07:29:14;;;;;;;6.60;4.70;;;6.40;99.90;;;;;;5054654;28;20177;-64
2023/02/01 07:31:40;;;;;;;7.27;4.17;;;6.40;99.90;;;;;;5075936;28;20432;-64
2023/02/01 07:34:05;;;;;;;8.47;5.03;;;6.50;99.90;;;;;;5062007;28;20687;-63
2023/02/01 07:36:31;;;;;;;13.57;5.40;;;6.50;99.90;;;;;;5076027;28;20592;-63
2023/02/01 07:38:57;;;;;;;9.17;5.03;;;6.40;99.90;;;;;;5077568;28;20227;-64
2023/02/01 07:41:23;;;;;;;14.53;5.03;;;6.50;99.90;;;;;;5079123;28;20189;-64
2023/02/01 07:43:50;;;;;;;10.17;5.07;;;6.50;99.90;;;;;;5075767;28;20471;-64
2023/02/01 07:46:16;;;;;;;6.27;4.80;;;6.50;99.90;;;;;;5074121;28;20274;-63
2023/02/01 07:48:42;;;;;;;8.37;4.77;;;6.50;99.90;;;;;;5075971;28;21036;-64
2023/02/01 07:51:15;;;;;;;11.30;5.63;;;6.50;99.90;;;;;;5078652;28;20598;-64
2023/02/01 07:53:42;;;;;;;8.20;4.80;;;6.50;99.90;;;;;;5075591;28;21667;-64
2023/02/01 07:56:19;;;;;;;6.00;4.70;;;6.50;99.90;;;;;;5077588;28;20495;-64
2023/02/01 07:58:48;;;;;;;7.07;4.80;;;6.50;99.90;;;;;;5074238;28;20630;-64
2023/02/01 08:01:24;;;;;;;5.70;4.50;;;6.50;99.90;;;;;;5073082;28;20444;-64
2023/02/01 08:03:52;;;;;;;5.97;4.60;;;6.50;99.90;;;;;;5076927;28;20859;-64
2023/02/01 08:06:22;;;;;;;7.27;4.07;;;6.40;99.90;;;;;;5074796;28;20456;-64
2023/02/01 08:08:49;;;;;;;8.20;3.90;;;6.40;99.90;;;;;;5075987;28;20762;-64
2023/02/01 08:11:16;;;;;;;5.57;4.23;;;6.40;99.90;;;;;;5080127;28;20416;-64
2023/02/01 08:13:42;;;;;;;8.17;3.83;;;6.40;99.90;;;;;;5050103;28;20526;-62
2023/02/01 08:16:09;;;;;;;9.70;4.37;;;6.40;99.90;;;;;;5056195;28;20482;-64
2023/02/01 08:18:37;;;;;;;7.93;4.37;;;6.40;99.90;;;;;;5071799;28;20451;-62
2023/02/01 08:21:08;;;;;;;11.43;5.03;;;6.40;99.90;;;;;;5070831;28;20440;-64
2023/02/01 08:23:35;;;;;;;4.73;3.70;;;6.50;99.90;;;;;;5071687;28;20483;-63
2023/02/01 08:26:19;;;;;;;9.63;4.77;;;6.60;99.90;;;;;;5073970;28;20444;-62
2023/02/01 08:28:48;;;;;;;6.20;3.80;;;6.60;99.90;;;;;;5068553;28;20427;-63
2023/02/01 08:31:16;;;;;;;6.13;3.60;;;6.60;99.90;;;;;;5054770;28;20449;-63
2023/02/01 08:33:44;;;;;;;7.47;4.03;;;6.50;99.90;;;;;;5070250;28;20447;-63
2023/02/01 08:36:11;;;;;;;7.03;4.00;;;6.60;99.90;;;;;;5072119;28;20581;-63
2023/02/01 08:38:39;;;;;;;7.20;4.23;;;6.60;99.90;;;;;;5073135;28;20876;-64
2023/02/01 08:41:10;;;;;;;4.57;3.63;;;6.70;99.90;;;;;;5068668;28;20523;-63
2023/02/01 08:43:36;;;;;;;5.57;3.40;;;6.70;99.90;;;;;;5069603;28;20468;-63
2023/02/01 08:46:03;;;;;;;7.40;3.63;;;6.60;99.90;;;;;;5070875;28;20452;-64
2023/02/01 08:48:29;;;;;;;8.93;3.90;;;6.70;99.90;;;;;;5070483;28;20496;-63
2023/02/01 08:50:54;;;;;;;6.03;3.93;;;6.70;99.90;;;;;;5073646;28;20428;-66
2023/02/01 08:53:20;;;;;;;7.80;4.17;;;6.70;99.90;;;;;;5072274;28;20179;-63
2023/02/01 08:55:46;;;;;;;5.83;4.43;;;6.70;99.90;;;;;;5069314;28;20202;-63
2023/02/01 08:58:13;;;;;;;5.80;3.50;;;6.70;99.90;;;;;;5073084;28;20182;-63
2023/02/01 09:00:40;;;;;;;7.50;4.20;;;6.70;99.90;;;;;;5074572;28;20949;-63
2023/02/01 09:03:09;;;;;;;5.10;3.77;;;6.80;99.90;;;;;;5077527;28;20416;-63
2023/02/01 09:05:34;;;;;;;7.33;3.90;;;6.80;99.90;;;;;;5073174;28;20531;-63
2023/02/01 09:08:00;;;;;;;9.17;4.10;;;6.90;99.90;;;;;;5075933;28;20586;-63
2023/02/01 09:10:26;;;;;;;8.97;4.60;;;7.00;99.90;;;;;;5071069;28;20652;-64
2023/02/01 09:12:51;;;;;;;6.17;3.23;;;7.00;99.90;;;;;;5075582;28;20612;-63
2023/02/01 09:15:17;;;;;;;9.50;3.73;;;7.00;99.90;;;;;;5069489;28;21177;-62
2023/02/01 09:17:43;;;;;;;15.67;3.47;;;7.00;99.90;;;;;;5072300;28;20217;-63
2023/02/01 09:20:09;;;;;;;4.23;3.20;;;7.00;99.90;;;;;;5070647;28;20266;-62
2023/02/01 09:22:35;;;;;;;9.93;4.57;;;7.00;99.90;;;;;;5071846;28;20193;-63
2023/02/01 09:25:00;;;;;;;9.37;4.00;;;7.10;99.90;;;;;;5070746;28;20460;-63
2023/02/01 09:27:26;;;;;;;9.60;4.23;;;7.00;99.90;;;;;;5072694;28;20254;-62
2023/02/01 09:29:52;;;;;;;7.30;3.77;;;7.10;99.90;;;;;;5075731;28;20204;-63
2023/02/01 09:32:22;;;;;;;4.97;3.13;;;7.20;99.90;;;;;;5074558;28;20529;-62
2023/02/01 09:34:49;;;;;;;7.87;4.13;;;7.30;99.90;;;;;;5069783;28;20450;-61
2023/02/01 09:37:14;;;;;;;7.63;3.53;;;7.20;99.90;;;;;;5077076;28;20452;-62
2023/02/01 09:39:42;;;;;;;9.03;3.53;;;7.20;99.90;;;;;;5058673;28;20447;-63
2023/02/01 09:42:11;;;;;;;11.03;3.60;;;7.30;99.90;;;;;;5075455;28;20190;-63
2023/02/01 09:44:47;;;;;;;12.03;4.03;;;7.30;99.90;;;;;;5069162;28;20554;-62
2023/02/01 09:47:19;;;;;;;5.87;4.20;;;7.30;99.90;;;;;;5073921;28;20453;-62
2023/02/01 09:50:00;;;;;;;5.57;3.40;;;7.30;99.90;;;;;;5070024;28;20432;-63
2023/02/01 09:52:47;;;;;;;6.47;3.67;;;7.30;99.90;;;;;;5070469;28;20459;-62
2023/02/01 09:55:32;;;;;;;7.20;3.83;;;7.20;99.90;;;;;;5070585;28;20506;-62
2023/02/01 09:58:25;;;;;;;10.33;4.20;;;7.30;99.90;;;;;;5067661;28;20994;-63
2023/02/01 10:01:21;;;;;;;7.13;3.67;;;7.20;99.90;;;;;;5074132;28;20452;-62
2023/02/01 10:03:48;;;;;;;8.23;3.70;;;7.30;99.90;;;;;;5052741;28;20981;-63
2023/02/01 10:06:26;;;;;;;10.33;3.80;;;7.20;99.90;;;;;;5074192;28;20452;-63
2023/02/01 10:09:06;;;;;;;15.30;4.03;;;7.30;99.90;;;;;;5073119;28;20436;-63
2023/02/01 10:12:09;;;;;;;12.57;4.20;;;7.30;99.90;;;;;;5072653;28;20436;-62
2023/02/01 10:15:11;;;;;;;13.60;4.00;;;7.40;99.90;;;;;;5071254;28;20436;-63
2023/02/01 10:17:49;;;;;;;9.37;4.00;;;7.30;99.90;;;;;;5071546;28;20456;-63
2023/02/01 10:20:29;;;;;;;7.97;3.60;;;7.40;99.90;;;;;;5072317;28;20853;-62
2023/02/01 10:23:04;;;;;;;5.83;3.20;;;7.40;99.90;;;;;;5071811;28;20707;-63
2023/02/01 10:25:47;;;;;;;11.67;3.70;;;7.50;99.90;;;;;;5073371;28;20459;-63
2023/02/01 10:28:15;;;;;;;5.37;3.60;;;7.60;99.90;;;;;;5075104;28;20853;-63
2023/02/01 10:30:46;;;;;;;13.10;4.00;;;7.70;99.90;;;;;;5075249;28;20508;-62
2023/02/01 10:33:15;;;;;;;5.47;3.03;;;7.60;99.90;;;;;;5074293;28;20451;-62
2023/02/01 10:35:43;;;;;;;22.97;4.10;;;7.60;99.90;;;;;;5074761;28;20779;-63
2023/02/01 10:38:22;;;;;;;10.17;5.00;;;7.60;99.90;;;;;;5052086;28;20469;-62
2023/02/01 10:40:49;;;;;;;5.23;3.60;;;7.60;99.90;;;;;;5078856;28;20424;-62
2023/02/01 10:43:14;;;;;;;10.60;3.83;;;7.70;99.90;;;;;;5055439;28;20471;-62
2023/02/01 10:45:42;;;;;;;6.80;3.93;;;7.60;99.90;;;;;;5070611;28;20535;-62
2023/02/01 10:48:08;;;;;;;7.00;3.73;;;7.70;99.90;;;;;;5077471;28;20173;-62
2023/02/01 10:50:58;;;;;;;11.97;4.00;;;7.70;99.90;;;;;;5074314;28;20909;-62
2023/02/01 10:53:36;;;;;;;10.20;3.90;;;7.80;99.90;;;;;;5071425;28;20433;-62
2023/02/01 10:56:11;;;;;;;7.73;4.00;;;7.80;99.90;;;;;;5070093;28;20545;-62
2023/02/01 10:58:45;;;;;;;6.03;3.83;;;7.90;99.90;;;;;;5068188;28;20432;-64
2023/02/01 11:01:38;;;;;;;6.33;3.60;;;7.80;99.90;;;;;;5070931;28;20833;-64
2023/02/01 11:04:08;;;;;;;12.57;3.70;;;7.90;99.90;;;;;;5072552;28;21156;-62
2023/02/01 11:06:36;;;;;;;7.40;3.20;;;7.80;99.90;;;;;;5072740;28;20882;-63
2023/02/01 11:09:09;;;;;;;6.20;3.40;;;7.90;99.90;;;;;;5072113;28;20545;-63
2023/02/01 11:11:47;;;;;;;8.27;3.10;;;7.90;99.90;;;;;;5071877;28;21292;-63
2023/02/01 11:14:24;;;;;;;5.83;3.30;;;7.90;99.90;;;;;;5070959;28;20436;-62
2023/02/01 11:16:54;;;;;;;10.10;4.00;;;7.90;99.90;;;;;;5072109;28;20470;-63
2023/02/01 11:19:20;;;;;;;6.40;3.53;;;7.90;99.90;;;;;;5071466;28;21002;-63
2023/02/01 11:21:54;;;;;;;6.97;3.47;;;7.90;99.90;;;;;;5075445;28;21061;-62
2023/02/01 11:24:26;;;;;;;12.33;4.00;;;7.90;99.90;;;;;;5071317;28;20871;-63
2023/02/01 11:27:00;;;;;;;16.80;4.87;;;7.90;99.90;;;;;;5072076;28;20456;-63
2023/02/01 11:29:36;;;;;;;10.87;3.90;;;7.90;99.90;;;;;;5071988;28;20424;-63
2023/02/01 11:32:02;;;;;;;11.10;4.30;;;7.90;99.90;;;;;;5073100;28;20941;-63
2023/02/01 11:34:41;;;;;;;10.47;4.50;;;7.90;99.90;;;;;;5073687;28;20432;-63
2023/02/01 11:37:23;;;;;;;10.30;4.00;;;7.90;99.90;;;;;;5055792;28;20539;-63
2023/02/01 11:39:58;;;;;;;12.97;4.30;;;7.80;99.90;;;;;;5075138;28;20420;-63
2023/02/01 11:42:25;;;;;;;11.00;4.70;;;7.80;99.90;;;;;;5071388;28;20437;-64
2023/02/01 11:44:51;;;;;;;11.97;5.10;;;7.80;99.90;;;;;;5055956;28;20842;-63
2023/02/01 11:47:25;;;;;;;12.63;4.60;;;7.80;99.90;;;;;;5057271;28;20451;-63
2023/02/01 11:50:00;;;;;;;9.10;4.27;;;7.80;99.90;;;;;;5052628;28;20265;-62
2023/02/01 11:52:42;;;;;;;11.10;3.90;;;7.90;99.90;;;;;;5073914;28;20413;-63
2023/02/01 11:55:07;;;;;;;11.60;3.47;;;7.90;99.90;;;;;;5076667;28;20493;-64
2023/02/01 11:57:57;;;;;;;7.40;3.60;;;7.90;99.90;;;;;;5074510;28;20965;-63
2023/02/01 12:00:34;;;;;;;13.90;4.27;;;7.80;99.90;;;;;;5075964;28;20217;-62
2023/02/01 12:03:45;;;;;;;6.10;4.00;;;7.80;99.90;;;;;;5061757;28;20440;-64
2023/02/01 12:06:33;;;;;;;6.23;3.90;;;7.90;99.90;;;;;;5057239;28;21202;-64
2023/02/01 12:09:34;;;;;;;5.93;4.07;;;7.90;99.90;;;;;;5065553;28;20471;-64
2023/02/01 12:12:24;;;;;;;7.80;4.07;;;7.90;99.90;;;;;;5055177;28;20977;-64
2023/02/01 12:15:29;;;;;;;10.30;3.87;;;7.90;99.90;;;;;;5070790;28;20443;-64
2023/02/01 12:18:13;;;;;;;6.90;3.80;;;8.00;99.90;;;;;;5069939;28;20432;-64
2023/02/01 12:21:02;;;;;;;6.57;3.80;;;7.90;99.90;;;;;;5072624;28;20439;-63
2023/02/01 12:23:50;;;;;;;12.73;3.67;;;7.90;99.90;;;;;;5073277;28;20421;-63
2023/02/01 12:26:37;;;;;;;8.57;3.30;;;7.90;99.90;;;;;;5073619;28;20490;-63
2023/02/01 12:29:24;;;;;;;8.10;3.90;;;7.90;99.90;;;;;;5050398;28;20969;-63
2023/02/01 12:31:59;;;;;;;22.10;4.63;;;7.90;99.90;;;;;;5071056;28;20421;-63
2023/02/01 12:34:49;;;;;;;19.23;4.77;;;7.90;99.90;;;;;;5070725;28;20504;-63
2023/02/01 12:37:45;;;;;;;11.17;4.43;;;7.90;99.90;;;;;;5071170;28;20557;-63
2023/02/01 12:40:26;;;;;;;11.80;4.67;;;7.90;99.90;;;;;;5071085;28;20421;-63
2023/02/01 12:43:21;;;;;;;14.30;4.60;;;7.90;99.90;;;;;;5056436;28;21272;-63
2023/02/01 12:45:56;;;;;;;8.40;3.50;;;7.90;99.90;;;;;;5068552;28;20480;-63
2023/02/01 12:48:38;;;;;;;12.20;4.07;;;8.00;99.90;;;;;;5077955;28;20426;-64
2023/02/01 12:51:12;;;;;;;10.07;4.47;;;7.90;99.90;;;;;;5072304;28;20445;-64
2023/02/01 12:54:05;;;;;;;17.00;4.97;;;8.00;99.90;;;;;;5068549;28;20509;-63
2023/02/01 12:56:51;;;;;;;12.80;4.60;;;8.10;99.90;;;;;;5072155;28;20494;-63
2023/02/01 12:59:31;;;;;;;11.07;4.47;;;8.10;99.90;;;;;;5053272;28;20546;-63
2023/02/01 13:02:04;;;;;;;14.13;4.20;;;7.90;99.90;;;;;;5073929;28;20530;-63
2023/02/01 13:04:32;;;;;;;9.50;4.93;;;7.80;99.90;;;;;;5069734;28;20501;-62
2023/02/01 13:07:22;;;;;;;7.50;3.53;;;7.80;99.90;;;;;;5073795;28;20452;-62
2023/02/01 13:09:59;;;;;;;8.37;4.10;;;7.90;99.90;;;;;;5071479;28;20429;-63
2023/02/01 13:12:32;;;;;;;11.00;5.60;;;7.80;99.90;;;;;;5071304;28;20447;-62
2023/02/01 13:15:03;;;;;;;11.43;5.77;;;7.90;99.90;;;;;;5076183;28;20547;-63
2023/02/01 13:17:32;;;;;;;11.70;5.70;;;8.00;99.90;;;;;;5074929;28;20453;-63
2023/02/01 13:20:04;;;;;;;13.30;4.20;;;8.00;99.90;;;;;;5074201;28;20440;-64
2023/02/01 13:22:43;;;;;;;14.57;5.60;;;7.90;99.90;;;;;;5072595;28;20490;-63
2023/02/01 13:25:12;;;;;;;10.33;4.10;;;8.00;99.90;;;;;;5069522;28;20464;-63
2023/02/01 13:27:38;;;;;;;19.23;4.50;;;8.10;99.90;;;;;;5071660;28;20460;-63
2023/02/01 13:30:26;;;;;;;12.83;4.20;;;8.10;99.90;;;;;;5054907;28;20444;-63
2023/02/01 13:33:11;;;;;;;18.77;5.00;;;8.00;99.90;;;;;;5078094;28;20425;-62
2023/02/01 13:35:58;;;;;;;14.30;3.90;;;8.00;99.90;;;;;;5074068;28;20554;-63
2023/02/01 13:39:01;;;;;;;20.73;4.37;;;8.10;99.90;;;;;;5075452;28;20474;-63